createdAt,value
2023-01-29T00:02:05.668Z,8.50
2023-01-29T00:04:34.221Z,8.60
2023-01-29T00:07:03.636Z,8.60
2023-01-29T00:09:32.084Z,8.60
2023-01-29T00:12:00.098Z,8.50
2023-01-29T00:14:28.470Z,8.50
2023-01-29T00:16:56.675Z,8.50
2023-01-29T00:19:24.761Z,8.50
2023-01-29T00:21:52.771Z,8.50
2023-01-29T00:24:22.643Z,8.60
2023-01-29T00:26:51.135Z,8.50
2023-01-29T00:29:19.157Z,8.40
2023-01-29T00:31:47.414Z,8.50
2023-01-29T00:34:15.485Z,8.60
2023-01-29T00:36:44.983Z,8.60
2023-01-29T00:39:12.995Z,8.50
2023-01-29T00:41:59.910Z,8.50
2023-01-29T00:44:45.572Z,8.40
2023-01-29T00:47:27.770Z,8.40
2023-01-29T00:49:55.808Z,8.40
2023-01-29T00:52:26.797Z,8.30
2023-01-29T00:54:54.868Z,8.40
2023-01-29T00:57:24.273Z,8.40
2023-01-29T00:59:52.257Z,8.40
2023-01-29T01:02:37.699Z,8.50
2023-01-29T01:05:07.748Z,8.50
2023-01-29T01:07:35.835Z,8.40
2023-01-29T01:10:21.139Z,8.50
2023-01-29T01:12:52.274Z,8.50
2023-01-29T01:15:20.453Z,8.50
2023-01-29T01:17:49.657Z,8.40
2023-01-29T01:20:18.108Z,8.40
2023-01-29T01:22:46.349Z,8.40
2023-01-29T01:25:14.520Z,8.50
2023-01-29T01:27:42.603Z,8.50
2023-01-29T01:30:13.870Z,8.40
2023-01-29T01:32:42.088Z,8.50
2023-01-29T01:35:10.435Z,8.40
2023-01-29T01:37:38.804Z,8.50
2023-01-29T01:40:12.737Z,8.50
2023-01-29T01:42:40.976Z,8.50
2023-01-29T01:45:15.866Z,8.50
2023-01-29T01:47:47.501Z,8.50
2023-01-29T01:50:16.618Z,8.40
2023-01-29T01:52:46.255Z,8.40
2023-01-29T01:55:15.683Z,8.50
2023-01-29T01:57:43.763Z,8.40
2023-01-29T02:00:14.380Z,8.40
2023-01-29T02:03:00.414Z,8.40
2023-01-29T02:05:47.266Z,8.40
2023-01-29T02:08:32.887Z,8.50
2023-01-29T02:11:00.918Z,8.50
2023-01-29T02:13:28.937Z,8.50
2023-01-29T02:15:56.969Z,8.50
2023-01-29T02:18:24.988Z,8.40
2023-01-29T02:25:15.329Z,8.40
2023-01-29T02:28:11.276Z,8.30
2023-01-29T02:30:42.518Z,8.40
2023-01-29T02:33:13.613Z,8.40
2023-01-29T02:35:43.644Z,8.30
2023-01-29T02:38:14.115Z,8.50
2023-01-29T02:40:44.412Z,8.40
2023-01-29T02:43:18.943Z,8.50
2023-01-29T02:45:49.851Z,8.40
2023-01-29T02:48:20.192Z,8.40
2023-01-29T02:50:51.098Z,8.40
2023-01-29T02:53:20.270Z,8.30
2023-01-29T02:55:49.897Z,8.30
2023-01-29T02:58:19.250Z,8.40
2023-01-29T03:00:49.486Z,8.40
2023-01-29T03:03:18.832Z,8.30
2023-01-29T03:05:53.406Z,8.40
2023-01-29T03:08:25.153Z,8.40
2023-01-29T03:10:55.093Z,8.40
2023-01-29T03:13:24.803Z,8.30
2023-01-29T03:16:01.682Z,8.40
2023-01-29T03:18:31.667Z,8.40
2023-01-29T03:21:01.496Z,8.40
2023-01-29T03:23:48.650Z,8.40
2023-01-29T03:26:34.000Z,8.30
2023-01-29T03:29:19.669Z,8.30
2023-01-29T03:32:07.410Z,8.40
2023-01-29T03:34:39.019Z,8.40
2023-01-29T03:37:09.239Z,8.40
2023-01-29T03:39:37.268Z,8.40
2023-01-29T03:42:06.609Z,8.30
2023-01-29T03:44:37.245Z,8.40
2023-01-29T03:47:10.358Z,8.40
2023-01-29T03:49:41.436Z,8.50
2023-01-29T03:52:11.681Z,8.40
2023-01-29T03:54:41.967Z,8.40
2023-01-29T03:57:16.099Z,8.40
2023-01-29T03:59:47.294Z,8.30
2023-01-29T04:02:19.347Z,8.30
2023-01-29T04:04:47.382Z,8.30
2023-01-29T04:07:16.963Z,8.40
2023-01-29T04:09:46.642Z,8.30
2023-01-29T04:12:15.441Z,8.40
2023-01-29T04:14:43.433Z,8.40
2023-01-29T04:17:14.104Z,8.40
2023-01-29T04:19:43.451Z,8.40
2023-01-29T04:22:13.901Z,8.40
2023-01-29T04:24:41.930Z,8.40
2023-01-29T04:27:21.239Z,8.30
2023-01-29T04:29:56.048Z,8.30
2023-01-29T04:32:27.463Z,8.20
2023-01-29T04:35:01.750Z,8.40
2023-01-29T04:37:37.785Z,8.30
2023-01-29T04:40:13.951Z,8.40
2023-01-29T04:42:44.427Z,8.30
2023-01-29T04:45:14.652Z,8.30
2023-01-29T04:47:46.159Z,8.40
2023-01-29T04:50:17.849Z,8.40
2023-01-29T04:52:48.758Z,8.30
2023-01-29T04:55:18.569Z,8.30
2023-01-29T04:57:48.510Z,8.20
2023-01-29T05:00:19.120Z,8.20
2023-01-29T05:02:47.701Z,8.20
2023-01-29T05:05:18.103Z,8.20
2023-01-29T05:07:46.469Z,8.10
2023-01-29T05:10:15.102Z,8.20
2023-01-29T05:12:44.849Z,8.30
2023-01-29T05:15:15.096Z,8.30
2023-01-29T05:17:43.543Z,8.30
2023-01-29T05:20:12.830Z,8.30
2023-01-29T05:22:42.597Z,8.30
2023-01-29T05:25:21.100Z,8.40
2023-01-29T05:28:06.972Z,8.30
2023-01-29T05:30:35.760Z,8.30
2023-01-29T05:33:04.032Z,8.30
2023-01-29T05:35:32.096Z,8.30
2023-01-29T05:38:01.417Z,8.30
2023-01-29T05:40:29.413Z,8.30
2023-01-29T05:42:57.383Z,8.20
2023-01-29T05:45:25.369Z,8.40
2023-01-29T05:47:56.864Z,8.40
2023-01-29T05:50:25.004Z,8.30
2023-01-29T05:52:57.487Z,8.30
2023-01-29T05:55:26.880Z,8.40
2023-01-29T05:57:55.009Z,8.40
2023-01-29T06:00:23.306Z,8.30
2023-01-29T06:02:51.364Z,8.10
2023-01-29T06:05:19.393Z,8.10
2023-01-29T06:07:47.414Z,8.20
2023-01-29T06:10:16.051Z,8.20
2023-01-29T06:12:45.681Z,8.30
2023-01-29T06:15:15.440Z,8.30
2023-01-29T06:17:43.539Z,8.30
2023-01-29T06:20:12.577Z,8.30
2023-01-29T06:22:40.600Z,8.30
2023-01-29T06:25:09.801Z,8.40
2023-01-29T06:27:37.842Z,8.30
2023-01-29T06:30:08.397Z,8.20
2023-01-29T06:32:36.468Z,8.20
2023-01-29T06:35:05.009Z,8.30
2023-01-29T06:37:33.043Z,8.20
2023-01-29T06:40:01.050Z,8.20
2023-01-29T06:42:29.059Z,8.30
2023-01-29T06:44:57.111Z,8.30
2023-01-29T06:47:27.898Z,8.30
2023-01-29T06:49:55.894Z,8.20
2023-01-29T06:52:25.456Z,8.30
2023-01-29T06:54:53.515Z,8.30
2023-01-29T06:57:21.563Z,8.30
2023-01-29T06:59:49.564Z,8.30
2023-01-29T07:02:17.700Z,8.20
2023-01-29T07:04:47.055Z,8.10
2023-01-29T07:07:15.063Z,8.10
2023-01-29T07:09:43.157Z,8.20
2023-01-29T07:12:11.523Z,8.20
2023-01-29T07:14:39.537Z,8.20
2023-01-29T07:17:07.543Z,8.10
2023-01-29T07:19:35.572Z,8.20
2023-01-29T07:22:05.786Z,8.10
2023-01-29T07:24:33.957Z,8.20
2023-01-29T07:27:02.000Z,8.30
2023-01-29T07:29:30.004Z,8.30
2023-01-29T07:31:58.117Z,8.30
2023-01-29T07:34:26.219Z,8.30
2023-01-29T07:36:54.627Z,8.20
2023-01-29T07:39:23.953Z,8.20
2023-01-29T07:41:51.935Z,8.20
2023-01-29T07:44:19.922Z,8.20
2023-01-29T07:46:47.947Z,8.30
2023-01-29T07:49:16.056Z,8.20
2023-01-29T07:51:44.017Z,8.20
2023-01-29T07:54:12.012Z,8.30
2023-01-29T07:56:41.366Z,8.20
2023-01-29T07:59:09.352Z,8.30
2023-01-29T08:01:37.575Z,8.30
2023-01-29T08:04:05.694Z,8.30
2023-01-29T08:06:33.716Z,8.10
2023-01-29T08:09:02.713Z,8.20
2023-01-29T08:11:30.752Z,8.20
2023-01-29T08:14:00.108Z,8.10
2023-01-29T08:16:28.150Z,8.10
2023-01-29T08:18:56.144Z,8.10
2023-01-29T08:21:24.138Z,8.20
2023-01-29T08:23:52.126Z,8.30
2023-01-29T08:26:20.092Z,8.20
2023-01-29T08:28:48.065Z,8.30
2023-01-29T08:31:17.556Z,8.30
2023-01-29T08:33:45.563Z,8.30
2023-01-29T08:36:13.757Z,8.20
2023-01-29T08:38:41.742Z,8.20
2023-01-29T08:41:09.748Z,8.20
2023-01-29T08:43:38.569Z,8.20
2023-01-29T08:46:07.003Z,8.30
2023-01-29T08:48:36.397Z,8.20
2023-01-29T08:51:04.649Z,8.10
2023-01-29T08:53:32.875Z,8.10
2023-01-29T08:56:00.955Z,8.20
2023-01-29T08:58:28.935Z,8.10
2023-01-29T09:00:56.965Z,8.20
2023-01-29T09:03:25.830Z,8.30
2023-01-29T09:05:55.217Z,8.30
2023-01-29T09:08:23.245Z,8.20
2023-01-29T09:10:51.261Z,8.20
2023-01-29T09:13:19.253Z,8.20
2023-01-29T09:15:47.246Z,8.10
2023-01-29T09:18:15.201Z,8.10
2023-01-29T09:20:43.201Z,8.10
2023-01-29T09:23:12.560Z,8.10
2023-01-29T09:25:40.562Z,8.20
2023-01-29T09:28:08.660Z,8.20
2023-01-29T09:30:38.166Z,8.20
2023-01-29T09:33:06.569Z,8.20
2023-01-29T09:35:34.879Z,8.30
2023-01-29T09:38:03.260Z,8.30
2023-01-29T09:40:35.944Z,8.30
2023-01-29T09:43:05.172Z,8.30
2023-01-29T09:45:33.182Z,8.20
2023-01-29T09:48:02.288Z,8.20
2023-01-29T09:50:32.435Z,8.20
2023-01-29T09:53:02.132Z,8.10
2023-01-29T09:55:31.046Z,8.10
2023-01-29T09:58:02.547Z,8.20
2023-01-29T10:00:32.955Z,8.20
2023-01-29T10:03:09.329Z,8.30
2023-01-29T10:05:44.668Z,8.30
2023-01-29T10:08:48.642Z,8.40
2023-01-29T10:11:21.975Z,8.30
2023-01-29T10:13:53.289Z,8.30
2023-01-29T10:16:32.306Z,8.20
2023-01-29T10:19:21.256Z,8.20
2023-01-29T10:21:58.180Z,8.30
2023-01-29T10:24:31.306Z,8.30
2023-01-29T10:26:59.329Z,8.30
2023-01-29T10:29:28.722Z,8.20
2023-01-29T10:31:58.088Z,8.20
2023-01-29T10:34:28.887Z,8.30
2023-01-29T10:36:57.112Z,8.30
2023-01-29T10:39:26.580Z,8.40
2023-01-29T10:42:09.808Z,8.30
2023-01-29T10:44:45.712Z,8.30
2023-01-29T10:47:33.493Z,8.20
2023-01-29T10:50:17.057Z,8.20
2023-01-29T10:52:58.151Z,8.20
2023-01-29T10:55:33.364Z,8.20
2023-01-29T10:58:04.238Z,8.10
2023-01-29T11:00:36.185Z,8.20
2023-01-29T11:03:26.351Z,8.30
2023-01-29T11:05:59.151Z,8.30
2023-01-29T11:08:29.424Z,8.40
2023-01-29T11:11:02.421Z,8.40
2023-01-29T11:13:32.575Z,8.30
2023-01-29T11:16:01.903Z,8.30
2023-01-29T11:18:29.862Z,8.30
2023-01-29T11:21:02.026Z,8.20
2023-01-29T11:23:31.381Z,8.30
2023-01-29T11:26:00.176Z,8.20
2023-01-29T11:28:41.100Z,8.30
2023-01-29T11:31:26.786Z,8.10
2023-01-29T11:34:02.355Z,8.30
2023-01-29T11:36:37.130Z,8.20
2023-01-29T11:39:17.194Z,8.30
2023-01-29T11:41:46.425Z,8.30
2023-01-29T11:44:22.295Z,8.40
2023-01-29T11:46:51.690Z,8.40
2023-01-29T11:49:33.086Z,8.30
2023-01-29T11:52:02.957Z,8.20
2023-01-29T11:54:32.963Z,8.20
2023-01-29T11:57:00.979Z,8.30
2023-01-29T11:59:38.195Z,8.30
2023-01-29T12:02:13.916Z,8.30
2023-01-29T12:04:42.058Z,8.30
2023-01-29T12:07:13.629Z,8.30
2023-01-29T12:09:41.778Z,8.30
2023-01-29T12:12:27.668Z,8.30
2023-01-29T12:15:04.618Z,8.40
2023-01-29T12:17:34.626Z,8.40
2023-01-29T12:20:04.876Z,8.40
2023-01-29T12:22:36.530Z,8.20
2023-01-29T12:25:07.252Z,8.20
2023-01-29T12:27:37.736Z,8.30
2023-01-29T12:30:09.348Z,8.40
2023-01-29T12:32:42.253Z,8.30
2023-01-29T12:35:13.383Z,8.30
2023-01-29T12:37:45.974Z,8.30
2023-01-29T12:40:15.723Z,8.20
2023-01-29T12:42:46.022Z,8.30
2023-01-29T12:45:17.696Z,8.40
2023-01-29T12:47:48.376Z,8.40
2023-01-29T12:50:19.354Z,8.40
2023-01-29T12:52:48.816Z,8.30
2023-01-29T12:55:18.115Z,8.30
2023-01-29T12:57:48.403Z,8.30
2023-01-29T13:00:18.122Z,8.30
2023-01-29T13:02:50.983Z,8.40
2023-01-29T13:05:23.916Z,8.30
2023-01-29T13:07:54.466Z,8.40
2023-01-29T13:10:25.205Z,8.30
2023-01-29T13:12:55.725Z,8.40
2023-01-29T13:15:24.420Z,8.50
2023-01-29T13:17:55.188Z,8.50
2023-01-29T13:20:25.582Z,8.50
2023-01-29T13:22:54.090Z,8.50
2023-01-29T13:25:22.172Z,8.50
2023-01-29T13:27:50.149Z,8.50
2023-01-29T13:30:28.376Z,8.40
2023-01-29T13:33:09.441Z,8.30
2023-01-29T13:35:39.376Z,8.30
2023-01-29T13:38:07.540Z,8.30
2023-01-29T13:40:35.824Z,8.30
2023-01-29T13:43:03.859Z,8.30
2023-01-29T13:45:36.725Z,8.20
2023-01-29T13:48:18.667Z,8.30
2023-01-29T13:50:46.656Z,8.40
2023-01-29T13:53:21.328Z,8.50
2023-01-29T13:55:49.360Z,8.40
2023-01-29T13:58:17.702Z,8.40
2023-01-29T14:00:54.892Z,8.30
2023-01-29T14:04:03.371Z,8.30
2023-01-29T14:06:49.308Z,8.20
2023-01-29T14:09:51.145Z,8.20
2023-01-29T14:12:41.264Z,8.20
2023-01-29T14:15:33.698Z,8.20
2023-01-29T14:18:06.961Z,8.30
2023-01-29T14:20:45.493Z,8.40
2023-01-29T14:23:23.421Z,8.40
2023-01-29T14:25:51.429Z,8.40
2023-01-29T14:28:22.170Z,8.30
2023-01-29T14:30:50.272Z,8.40
2023-01-29T14:33:28.133Z,8.40
2023-01-29T14:35:58.054Z,8.30
2023-01-29T14:38:27.448Z,8.30
2023-01-29T14:41:04.491Z,8.30
2023-01-29T14:43:32.506Z,8.40
2023-01-29T14:46:42.293Z,8.40
2023-01-29T14:49:10.528Z,8.30
2023-01-29T14:51:41.698Z,8.40
2023-01-29T14:54:17.794Z,8.50
2023-01-29T14:56:48.063Z,8.40
2023-01-29T14:59:19.185Z,8.40
2023-01-29T15:01:49.227Z,8.40
2023-01-29T15:04:19.280Z,8.30
2023-01-29T15:06:49.284Z,8.30
2023-01-29T15:09:18.989Z,8.30
2023-01-29T15:11:51.601Z,8.20
2023-01-29T15:14:24.908Z,8.30
2023-01-29T15:16:57.660Z,8.40
2023-01-29T15:19:26.682Z,8.30
2023-01-29T15:22:20.289Z,8.40
2023-01-29T15:24:48.931Z,8.50
2023-01-29T15:27:17.833Z,8.40
2023-01-29T15:29:48.252Z,8.30
2023-01-29T15:32:20.395Z,8.30
2023-01-29T15:34:48.436Z,8.30
2023-01-29T15:37:31.629Z,8.20
2023-01-29T15:40:00.285Z,8.10
2023-01-29T15:42:28.793Z,8.10
2023-01-29T15:44:56.811Z,8.30
2023-01-29T15:47:26.971Z,8.30
2023-01-29T15:49:54.960Z,8.30
2023-01-29T15:52:23.936Z,8.30
2023-01-29T15:54:53.327Z,8.30
2023-01-29T15:57:23.865Z,8.40
2023-01-29T15:59:52.292Z,8.40
2023-01-29T16:02:37.907Z,8.40
2023-01-29T16:05:07.166Z,8.30
2023-01-29T16:07:35.313Z,8.30
2023-01-29T16:10:05.250Z,8.30
2023-01-29T16:12:33.434Z,8.30
2023-01-29T16:15:02.446Z,8.30
2023-01-29T16:17:35.268Z,8.20
2023-01-29T16:20:05.268Z,8.30
2023-01-29T16:22:34.144Z,8.30
2023-01-29T16:25:07.538Z,8.20
2023-01-29T16:27:35.700Z,8.30
2023-01-29T16:30:04.513Z,8.30
2023-01-29T16:32:32.613Z,8.30
2023-01-29T16:35:00.793Z,8.30
2023-01-29T16:37:29.971Z,8.20
2023-01-29T16:39:58.082Z,8.30
2023-01-29T16:42:29.029Z,8.20
2023-01-29T16:45:01.671Z,8.30
2023-01-29T16:47:32.055Z,8.30
2023-01-29T16:50:01.767Z,8.20
2023-01-29T16:52:31.006Z,8.30
2023-01-29T16:55:03.830Z,8.30
2023-01-29T16:57:34.012Z,8.30
2023-01-29T17:00:04.585Z,8.30
2023-01-29T17:02:34.259Z,8.40
2023-01-29T17:05:04.439Z,8.20
2023-01-29T17:07:32.714Z,8.20
2023-01-29T17:10:01.618Z,8.20
2023-01-29T17:12:30.329Z,8.20
2023-01-29T17:15:00.711Z,8.20
2023-01-29T17:17:32.518Z,8.20
2023-01-29T17:20:01.355Z,8.20
2023-01-29T17:22:29.361Z,8.30
2023-01-29T17:24:57.344Z,8.20
2023-01-29T17:27:25.331Z,8.30
2023-01-29T17:29:53.677Z,8.40
2023-01-29T17:32:23.206Z,8.70
2023-01-29T17:34:52.335Z,8.90
2023-01-29T17:37:20.382Z,9.40
2023-01-29T17:39:50.438Z,9.90
2023-01-29T17:42:18.433Z,10.30
2023-01-29T17:44:49.727Z,10.80
2023-01-29T17:47:17.907Z,11.20
2023-01-29T17:49:47.819Z,11.70
2023-01-29T17:52:15.925Z,12.10
2023-01-29T17:54:43.945Z,12.50
2023-01-29T17:57:12.409Z,12.80
2023-01-29T17:59:40.418Z,13.10
2023-01-29T18:02:08.788Z,13.40
2023-01-29T18:04:58.059Z,13.70
2023-01-29T18:07:26.214Z,13.90
2023-01-29T18:09:54.356Z,14.10
2023-01-29T18:12:22.500Z,14.30
2023-01-29T18:14:50.524Z,14.40
2023-01-29T18:17:22.324Z,14.60
2023-01-29T18:19:50.505Z,14.70
2023-01-29T18:22:19.989Z,14.80
2023-01-29T18:24:48.181Z,14.90
2023-01-29T18:27:16.285Z,15.00
2023-01-29T18:29:44.655Z,15.10
2023-01-29T18:32:13.472Z,15.10
2023-01-29T18:34:42.014Z,15.30
2023-01-29T18:37:12.217Z,15.40
2023-01-29T18:39:42.481Z,15.50
2023-01-29T18:42:10.605Z,15.50
2023-01-29T18:44:39.720Z,15.60
2023-01-29T18:47:07.759Z,15.70
2023-01-29T18:49:38.943Z,15.80
2023-01-29T18:52:07.180Z,15.90
2023-01-29T18:54:35.332Z,16.00
2023-01-29T18:57:15.903Z,16.00
2023-01-29T18:59:53.141Z,16.10
2023-01-29T19:02:21.307Z,16.20
2023-01-29T19:04:49.496Z,16.30
2023-01-29T19:07:17.471Z,16.30
2023-01-29T19:09:46.993Z,16.30
2023-01-29T19:12:16.447Z,16.40
2023-01-29T19:14:44.636Z,16.40
2023-01-29T19:17:12.665Z,16.50
2023-01-29T19:19:40.798Z,16.60
2023-01-29T19:22:08.837Z,16.60
2023-01-29T19:24:39.025Z,16.70
2023-01-29T19:27:07.421Z,16.70
2023-01-29T19:29:36.877Z,16.80
2023-01-29T19:32:05.162Z,16.80
2023-01-29T19:34:33.289Z,16.80
2023-01-29T19:37:01.489Z,16.80
2023-01-29T19:39:33.705Z,16.80
2023-01-29T19:42:01.970Z,16.80
2023-01-29T19:44:30.056Z,16.80
2023-01-29T19:46:59.435Z,16.80
2023-01-29T19:49:28.282Z,16.90
2023-01-29T19:51:58.904Z,16.90
2023-01-29T19:54:27.812Z,17.00
2023-01-29T19:56:55.840Z,17.00
2023-01-29T19:59:23.837Z,17.10
2023-01-29T20:01:51.948Z,17.20
2023-01-29T20:04:21.390Z,17.20
2023-01-29T20:06:49.451Z,17.20
2023-01-29T20:09:18.088Z,17.30
2023-01-29T20:11:46.152Z,17.30
2023-01-29T20:14:14.865Z,17.40
2023-01-29T20:16:42.984Z,17.50
2023-01-29T20:19:13.726Z,17.50
2023-01-29T20:21:48.825Z,17.60
2023-01-29T20:24:16.979Z,17.50
2023-01-29T20:26:45.086Z,17.50
2023-01-29T20:29:13.448Z,17.50
2023-01-29T20:31:41.606Z,17.50
2023-01-29T20:34:09.620Z,17.40
2023-01-29T20:36:37.647Z,17.00
2023-01-29T20:39:07.056Z,16.70
2023-01-29T20:41:35.277Z,16.20
2023-01-29T20:44:03.395Z,15.80
2023-01-29T20:46:31.406Z,15.30
2023-01-29T20:48:59.434Z,14.90
2023-01-29T20:51:27.399Z,14.50
2023-01-29T20:53:55.618Z,14.10
2023-01-29T20:56:39.111Z,13.70
2023-01-29T20:59:10.464Z,13.30
2023-01-29T21:01:38.835Z,13.10
2023-01-29T21:04:06.850Z,12.90
2023-01-29T21:06:35.090Z,12.80
2023-01-29T21:09:03.392Z,12.70
2023-01-29T21:11:33.474Z,12.40
2023-01-29T21:14:01.942Z,12.20
2023-01-29T21:16:30.168Z,12.10
2023-01-29T21:18:58.226Z,11.90
2023-01-29T21:21:26.783Z,12.00
2023-01-29T21:23:54.970Z,11.80
2023-01-29T21:26:23.599Z,11.70
2023-01-29T21:28:52.991Z,11.60
2023-01-29T21:31:21.783Z,11.50
2023-01-29T21:33:49.806Z,11.60
2023-01-29T21:36:17.849Z,11.50
2023-01-29T21:38:45.839Z,11.40
2023-01-29T21:41:13.863Z,11.30
2023-01-29T21:43:40.838Z,11.20
2023-01-29T21:46:12.467Z,11.20
2023-01-29T21:48:40.580Z,11.00
2023-01-29T21:51:08.814Z,10.80
2023-01-29T21:53:37.299Z,10.90
2023-01-29T21:56:06.144Z,10.70
2023-01-29T21:58:34.264Z,10.70
2023-01-29T22:01:28.095Z,10.80
2023-01-29T22:03:51.563Z,10.70
2023-01-29T22:06:19.546Z,10.70
2023-01-29T22:08:49.000Z,10.80
2023-01-29T22:11:17.163Z,10.80
2023-01-29T22:13:45.170Z,10.80
2023-01-29T22:16:13.165Z,10.80
2023-01-29T22:18:41.169Z,10.50
2023-01-29T22:21:10.545Z,10.50
2023-01-29T22:23:39.337Z,10.40
2023-01-29T22:26:09.018Z,10.30
2023-01-29T22:28:37.336Z,10.20
2023-01-29T22:31:05.734Z,10.20
2023-01-29T22:33:34.298Z,10.30
2023-01-29T22:36:02.328Z,10.30
2023-01-29T22:38:31.818Z,10.40
2023-01-29T22:41:00.876Z,10.50
2023-01-29T22:43:29.171Z,10.50
2023-01-29T22:45:57.423Z,10.40
2023-01-29T22:48:25.469Z,10.30
2023-01-29T22:51:09.494Z,10.10
2023-01-29T22:53:39.172Z,10.10
2023-01-29T22:56:08.048Z,10.10
2023-01-29T22:58:36.075Z,9.90
2023-01-29T23:01:04.098Z,10.00
2023-01-29T23:03:32.036Z,10.00
2023-01-29T23:06:00.041Z,10.00
2023-01-29T23:08:28.030Z,10.00
2023-01-29T23:11:13.756Z,10.20
2023-01-29T23:13:42.909Z,10.20
2023-01-29T23:16:10.972Z,10.20
2023-01-29T23:18:39.023Z,10.10
2023-01-29T23:21:07.097Z,10.00
2023-01-29T23:23:35.452Z,9.90
2023-01-29T23:26:23.791Z,9.80
2023-01-29T23:28:51.923Z,9.80
2023-01-29T23:31:19.981Z,9.80
2023-01-29T23:33:48.489Z,9.80
2023-01-29T23:36:16.479Z,9.80
2023-01-29T23:38:44.476Z,9.80
2023-01-29T23:41:13.843Z,9.90
2023-01-29T23:43:41.876Z,10.00
2023-01-29T23:46:09.866Z,9.90
2023-01-29T23:48:37.835Z,9.90
2023-01-29T23:51:05.976Z,9.80
2023-01-29T23:53:34.002Z,9.70
2023-01-29T23:56:03.017Z,9.70
2023-01-29T23:58:32.470Z,9.80
